sensor_id;sensor_type;location;lat;lon;timestamp;temperature;humidity
30385;DHT22;17181;51.002;4.096;2024-02-21T00:01:01;10.90;99.90
30385;DHT22;17181;51.002;4.096;2024-02-21T00:03:27;10.90;99.90
30385;DHT22;17181;51.002;4.096;2024-02-21T00:05:53;10.90;99.90
30385;DHT22;17181;51.002;4.096;2024-02-21T00:08:19;10.90;99.90
30385;DHT22;17181;51.002;4.096;2024-02-21T00:10:45;10.90;99.90
30385;DHT22;17181;51.002;4.096;2024-02-21T00:13:11;10.90;99.90
30385;DHT22;17181;51.002;4.096;2024-02-21T00:15:37;10.90;99.90
30385;DHT22;17181;51.002;4.096;2024-02-21T00:18:03;10.90;99.90
30385;DHT22;17181;51.002;4.096;2024-02-21T00:20:29;10.80;99.90
30385;DHT22;17181;51.002;4.096;2024-02-21T00:22:55;10.80;99.90
30385;DHT22;17181;51.002;4.096;2024-02-21T00:25:21;10.80;99.90
30385;DHT22;17181;51.002;4.096;2024-02-21T00:27:47;10.80;99.90
30385;DHT22;17181;51.002;4.096;2024-02-21T00:30:13;10.80;99.90
30385;DHT22;17181;51.002;4.096;2024-02-21T00:32:39;10.80;99.90
30385;DHT22;17181;51.002;4.096;2024-02-21T00:35:05;10.80;99.90
30385;DHT22;17181;51.002;4.096;2024-02-21T00:37:31;10.70;99.90
30385;DHT22;17181;51.002;4.096;2024-02-21T00:39:57;10.70;99.90
30385;DHT22;17181;51.002;4.096;2024-02-21T00:42:23;10.70;99.90
30385;DHT22;17181;51.002;4.096;2024-02-21T00:44:49;10.70;99.90
30385;DHT22;17181;51.002;4.096;2024-02-21T00:47:15;10.70;99.90
30385;DHT22;17181;51.002;4.096;2024-02-21T00:49:41;10.80;99.90
30385;DHT22;17181;51.002;4.096;2024-02-21T00:52:06;10.70;99.90
30385;DHT22;17181;51.002;4.096;2024-02-21T00:54:32;10.80;99.90
30385;DHT22;17181;51.002;4.096;2024-02-21T00:56:58;10.80;99.90
30385;DHT22;17181;51.002;4.096;2024-02-21T00:59:24;10.80;99.90
30385;DHT22;17181;51.002;4.096;2024-02-21T01:01:50;10.70;99.90
30385;DHT22;17181;51.002;4.096;2024-02-21T01:04:16;10.70;99.90
30385;DHT22;17181;51.002;4.096;2024-02-21T01:06:42;10.70;99.90
30385;DHT22;17181;51.002;4.096;2024-02-21T01:09:10;10.70;99.90
30385;DHT22;17181;51.002;4.096;2024-02-21T01:11:37;10.60;99.90
30385;DHT22;17181;51.002;4.096;2024-02-21T01:14:02;10.60;99.90
30385;DHT22;17181;51.002;4.096;2024-02-21T01:16:28;10.60;99.90
30385;DHT22;17181;51.002;4.096;2024-02-21T01:18:54;10.50;99.90
30385;DHT22;17181;51.002;4.096;2024-02-21T01:21:20;10.50;99.90
30385;DHT22;17181;51.002;4.096;2024-02-21T01:23:46;10.50;99.90
30385;DHT22;17181;51.002;4.096;2024-02-21T01:26:12;10.40;99.90
30385;DHT22;17181;51.002;4.096;2024-02-21T01:28:40;10.40;99.90
30385;DHT22;17181;51.002;4.096;2024-02-21T01:31:06;10.30;99.90
30385;DHT22;17181;51.002;4.096;2024-02-21T01:33:32;10.30;99.90
30385;DHT22;17181;51.002;4.096;2024-02-21T01:36:04;10.30;99.90
30385;DHT22;17181;51.002;4.096;2024-02-21T01:38:32;10.20;99.90
30385;DHT22;17181;51.002;4.096;2024-02-21T01:40:58;10.20;99.90
30385;DHT22;17181;51.002;4.096;2024-02-21T01:43:24;10.20;99.90
30385;DHT22;17181;51.002;4.096;2024-02-21T01:45:52;10.20;99.90
30385;DHT22;17181;51.002;4.096;2024-02-21T01:48:19;10.20;99.90
30385;DHT22;17181;51.002;4.096;2024-02-21T01:50:46;10.20;99.90
30385;DHT22;17181;51.002;4.096;2024-02-21T01:53:21;10.20;99.90
30385;DHT22;17181;51.002;4.096;2024-02-21T01:55:48;10.20;99.90
30385;DHT22;17181;51.002;4.096;2024-02-21T01:58:15;10.20;99.90
30385;DHT22;17181;51.002;4.096;2024-02-21T02:00:45;10.20;99.90
30385;DHT22;17181;51.002;4.096;2024-02-21T02:03:13;10.30;99.90
30385;DHT22;17181;51.002;4.096;2024-02-21T02:05:46;10.20;99.90
30385;DHT22;17181;51.002;4.096;2024-02-21T02:08:14;10.20;99.90
30385;DHT22;17181;51.002;4.096;2024-02-21T02:10:40;10.20;99.90
30385;DHT22;17181;51.002;4.096;2024-02-21T02:13:06;10.20;99.90
30385;DHT22;17181;51.002;4.096;2024-02-21T02:15:42;10.20;99.90
30385;DHT22;17181;51.002;4.096;2024-02-21T02:18:09;10.30;99.90
30385;DHT22;17181;51.002;4.096;2024-02-21T02:20:36;10.30;99.90
30385;DHT22;17181;51.002;4.096;2024-02-21T02:26:10;10.30;99.90
30385;DHT22;17181;51.002;4.096;2024-02-21T02:28:36;10.30;99.90
30385;DHT22;17181;51.002;4.096;2024-02-21T02:31:02;10.30;99.90
30385;DHT22;17181;51.002;4.096;2024-02-21T02:33:28;10.20;99.90
30385;DHT22;17181;51.002;4.096;2024-02-21T02:35:54;10.20;99.90
30385;DHT22;17181;51.002;4.096;2024-02-21T02:38:20;10.30;99.90
30385;DHT22;17181;51.002;4.096;2024-02-21T02:40:45;10.30;99.90
30385;DHT22;17181;51.002;4.096;2024-02-21T02:43:11;10.30;99.90
30385;DHT22;17181;51.002;4.096;2024-02-21T02:45:37;10.30;99.90
30385;DHT22;17181;51.002;4.096;2024-02-21T02:48:03;10.30;99.90
30385;DHT22;17181;51.002;4.096;2024-02-21T02:50:29;10.30;99.90
30385;DHT22;17181;51.002;4.096;2024-02-21T02:52:55;10.20;99.90
30385;DHT22;17181;51.002;4.096;2024-02-21T02:55:21;10.20;99.90
30385;DHT22;17181;51.002;4.096;2024-02-21T02:57:48;10.20;99.90
30385;DHT22;17181;51.002;4.096;2024-02-21T03:00:14;10.10;99.90
30385;DHT22;17181;51.002;4.096;2024-02-21T03:02:42;10.10;99.90
30385;DHT22;17181;51.002;4.096;2024-02-21T03:05:15;10.10;99.90
30385;DHT22;17181;51.002;4.096;2024-02-21T03:07:41;10.10;99.90
30385;DHT22;17181;51.002;4.096;2024-02-21T03:10:07;10.00;99.90
30385;DHT22;17181;51.002;4.096;2024-02-21T03:12:33;10.10;99.90
30385;DHT22;17181;51.002;4.096;2024-02-21T03:14:59;10.10;99.90
30385;DHT22;17181;51.002;4.096;2024-02-21T03:17:25;10.10;99.90
30385;DHT22;17181;51.002;4.096;2024-02-21T03:19:54;10.10;99.90
30385;DHT22;17181;51.002;4.096;2024-02-21T03:22:21;10.10;99.90
30385;DHT22;17181;51.002;4.096;2024-02-21T03:24:47;10.00;99.90
30385;DHT22;17181;51.002;4.096;2024-02-21T03:27:13;10.10;99.90
30385;DHT22;17181;51.002;4.096;2024-02-21T03:29:39;10.00;99.90
30385;DHT22;17181;51.002;4.096;2024-02-21T03:32:05;10.00;99.90
30385;DHT22;17181;51.002;4.096;2024-02-21T03:34:31;10.00;99.90
30385;DHT22;17181;51.002;4.096;2024-02-21T03:36:58;10.00;99.90
30385;DHT22;17181;51.002;4.096;2024-02-21T03:39:24;10.00;99.90
30385;DHT22;17181;51.002;4.096;2024-02-21T03:41:50;10.00;99.90
30385;DHT22;17181;51.002;4.096;2024-02-21T03:44:16;10.00;99.90
30385;DHT22;17181;51.002;4.096;2024-02-21T03:46:42;10.00;99.90
30385;DHT22;17181;51.002;4.096;2024-02-21T03:49:08;10.00;99.90
30385;DHT22;17181;51.002;4.096;2024-02-21T03:51:34;10.00;99.90
30385;DHT22;17181;51.002;4.096;2024-02-21T03:54:00;10.00;99.90
30385;DHT22;17181;51.002;4.096;2024-02-21T03:56:26;10.00;99.90
30385;DHT22;17181;51.002;4.096;2024-02-21T03:58:53;10.00;99.90
30385;DHT22;17181;51.002;4.096;2024-02-21T04:01:19;10.00;99.90
30385;DHT22;17181;51.002;4.096;2024-02-21T04:03:45;10.00;99.90
30385;DHT22;17181;51.002;4.096;2024-02-21T04:06:11;10.00;99.90
30385;DHT22;17181;51.002;4.096;2024-02-21T04:08:36;10.00;99.90
30385;DHT22;17181;51.002;4.096;2024-02-21T04:11:03;10.00;99.90
30385;DHT22;17181;51.002;4.096;2024-02-21T04:13:28;10.10;99.90
30385;DHT22;17181;51.002;4.096;2024-02-21T04:15:54;10.10;99.90
30385;DHT22;17181;51.002;4.096;2024-02-21T04:18:20;10.10;99.90
30385;DHT22;17181;51.002;4.096;2024-02-21T04:20:47;10.10;99.90
30385;DHT22;17181;51.002;4.096;2024-02-21T04:23:13;10.10;99.90
30385;DHT22;17181;51.002;4.096;2024-02-21T04:25:39;10.10;99.90
30385;DHT22;17181;51.002;4.096;2024-02-21T04:28:05;10.10;99.90
30385;DHT22;17181;51.002;4.096;2024-02-21T04:30:31;10.10;99.90
30385;DHT22;17181;51.002;4.096;2024-02-21T04:32:56;10.10;99.90
30385;DHT22;17181;51.002;4.096;2024-02-21T04:35:22;10.10;99.90
30385;DHT22;17181;51.002;4.096;2024-02-21T04:37:49;10.10;99.90
30385;DHT22;17181;51.002;4.096;2024-02-21T04:40:15;10.10;99.90
30385;DHT22;17181;51.002;4.096;2024-02-21T04:42:42;10.10;99.90
30385;DHT22;17181;51.002;4.096;2024-02-21T04:45:08;10.10;99.90
30385;DHT22;17181;51.002;4.096;2024-02-21T04:47:35;10.10;99.90
30385;DHT22;17181;51.002;4.096;2024-02-21T04:50:01;10.10;99.90
30385;DHT22;17181;51.002;4.096;2024-02-21T04:52:26;10.10;99.90
30385;DHT22;17181;51.002;4.096;2024-02-21T04:54:53;10.10;99.90
30385;DHT22;17181;51.002;4.096;2024-02-21T04:57:18;10.10;99.90
30385;DHT22;17181;51.002;4.096;2024-02-21T04:59:44;10.10;99.90
30385;DHT22;17181;51.002;4.096;2024-02-21T05:02:11;10.10;99.90
30385;DHT22;17181;51.002;4.096;2024-02-21T05:04:37;10.10;99.90
30385;DHT22;17181;51.002;4.096;2024-02-21T05:07:04;10.10;99.90
30385;DHT22;17181;51.002;4.096;2024-02-21T05:09:30;10.10;99.90
30385;DHT22;17181;51.002;4.096;2024-02-21T05:11:57;10.10;99.90
30385;DHT22;17181;51.002;4.096;2024-02-21T05:14:25;10.10;99.90
30385;DHT22;17181;51.002;4.096;2024-02-21T05:16:52;10.10;99.90
30385;DHT22;17181;51.002;4.096;2024-02-21T05:19:18;10.10;99.90
30385;DHT22;17181;51.002;4.096;2024-02-21T05:21:44;10.10;99.90
30385;DHT22;17181;51.002;4.096;2024-02-21T05:24:10;10.10;99.90
30385;DHT22;17181;51.002;4.096;2024-02-21T05:26:36;10.10;99.90
30385;DHT22;17181;51.002;4.096;2024-02-21T05:29:02;10.10;99.90
30385;DHT22;17181;51.002;4.096;2024-02-21T05:34:16;10.10;99.90
30385;DHT22;17181;51.002;4.096;2024-02-21T05:36:42;10.10;99.90
30385;DHT22;17181;51.002;4.096;2024-02-21T05:39:09;10.00;99.90
30385;DHT22;17181;51.002;4.096;2024-02-21T05:41:35;10.10;99.90
30385;DHT22;17181;51.002;4.096;2024-02-21T05:44:01;10.10;99.90
30385;DHT22;17181;51.002;4.096;2024-02-21T05:46:27;10.10;99.90
30385;DHT22;17181;51.002;4.096;2024-02-21T05:48:53;10.00;99.90
30385;DHT22;17181;51.002;4.096;2024-02-21T05:51:19;10.00;99.90
30385;DHT22;17181;51.002;4.096;2024-02-21T05:53:45;10.10;99.90
30385;DHT22;17181;51.002;4.096;2024-02-21T05:56:12;10.10;99.90
30385;DHT22;17181;51.002;4.096;2024-02-21T05:58:38;10.10;99.90
30385;DHT22;17181;51.002;4.096;2024-02-21T06:01:04;10.10;99.90
30385;DHT22;17181;51.002;4.096;2024-02-21T06:03:33;10.00;99.90
30385;DHT22;17181;51.002;4.096;2024-02-21T06:05:59;10.10;99.90
30385;DHT22;17181;51.002;4.096;2024-02-21T06:08:25;10.10;99.90
30385;DHT22;17181;51.002;4.096;2024-02-21T06:10:51;10.10;99.90
30385;DHT22;17181;51.002;4.096;2024-02-21T06:13:26;10.10;99.90
30385;DHT22;17181;51.002;4.096;2024-02-21T06:15:53;10.10;99.90
30385;DHT22;17181;51.002;4.096;2024-02-21T06:18:19;10.10;99.90
30385;DHT22;17181;51.002;4.096;2024-02-21T06:20:46;10.10;99.90
30385;DHT22;17181;51.002;4.096;2024-02-21T06:23:12;10.10;99.90
30385;DHT22;17181;51.002;4.096;2024-02-21T06:25:38;10.10;99.90
30385;DHT22;17181;51.002;4.096;2024-02-21T06:28:05;10.10;99.90
30385;DHT22;17181;51.002;4.096;2024-02-21T06:30:31;10.20;99.90
30385;DHT22;17181;51.002;4.096;2024-02-21T06:32:57;10.20;99.90
30385;DHT22;17181;51.002;4.096;2024-02-21T06:35:23;10.20;99.90
30385;DHT22;17181;51.002;4.096;2024-02-21T06:37:52;10.20;99.90
30385;DHT22;17181;51.002;4.096;2024-02-21T06:40:22;10.20;99.90
30385;DHT22;17181;51.002;4.096;2024-02-21T06:42:48;10.20;99.90
30385;DHT22;17181;51.002;4.096;2024-02-21T06:45:15;10.20;99.90
30385;DHT22;17181;51.002;4.096;2024-02-21T06:47:41;10.20;99.90
30385;DHT22;17181;51.002;4.096;2024-02-21T06:50:07;10.20;99.90
30385;DHT22;17181;51.002;4.096;2024-02-21T06:52:34;10.20;99.90
30385;DHT22;17181;51.002;4.096;2024-02-21T06:55:00;10.20;99.90
30385;DHT22;17181;51.002;4.096;2024-02-21T06:57:28;10.30;99.90
30385;DHT22;17181;51.002;4.096;2024-02-21T06:59:54;10.20;99.90
30385;DHT22;17181;51.002;4.096;2024-02-21T07:02:20;10.20;99.90
30385;DHT22;17181;51.002;4.096;2024-02-21T07:04:46;10.20;99.90
30385;DHT22;17181;51.002;4.096;2024-02-21T07:07:12;10.20;99.90
30385;DHT22;17181;51.002;4.096;2024-02-21T07:09:38;10.20;99.90
30385;DHT22;17181;51.002;4.096;2024-02-21T07:12:04;10.30;99.90
30385;DHT22;17181;51.002;4.096;2024-02-21T07:14:32;10.30;99.90
30385;DHT22;17181;51.002;4.096;2024-02-21T07:16:58;10.30;99.90
30385;DHT22;17181;51.002;4.096;2024-02-21T07:19:24;10.30;99.90
30385;DHT22;17181;51.002;4.096;2024-02-21T07:21:50;10.30;99.90
30385;DHT22;17181;51.002;4.096;2024-02-21T07:24:16;10.30;99.90
30385;DHT22;17181;51.002;4.096;2024-02-21T07:26:43;10.30;99.90
30385;DHT22;17181;51.002;4.096;2024-02-21T07:29:09;10.30;99.90
30385;DHT22;17181;51.002;4.096;2024-02-21T07:31:44;10.30;99.90
30385;DHT22;17181;51.002;4.096;2024-02-21T07:34:10;10.30;99.90
30385;DHT22;17181;51.002;4.096;2024-02-21T07:36:36;10.30;99.90
30385;DHT22;17181;51.002;4.096;2024-02-21T07:39:05;10.30;99.90
30385;DHT22;17181;51.002;4.096;2024-02-21T07:41:31;10.30;99.90
30385;DHT22;17181;51.002;4.096;2024-02-21T07:43:57;10.30;99.90
30385;DHT22;17181;51.002;4.096;2024-02-21T07:46:23;10.40;99.90
30385;DHT22;17181;51.002;4.096;2024-02-21T07:48:50;10.30;99.90
30385;DHT22;17181;51.002;4.096;2024-02-21T07:51:16;10.40;99.90
30385;DHT22;17181;51.002;4.096;2024-02-21T07:53:44;10.40;99.90
30385;DHT22;17181;51.002;4.096;2024-02-21T07:56:14;10.40;99.90
30385;DHT22;17181;51.002;4.096;2024-02-21T07:58:41;10.40;99.90
